Time;durP1;ratioP1;P1;durP2;ratioP2;P2;SDS_P1;SDS_P2;PMS_P1;PMS_P2;Temp;Humidity;BMP_temperature;BMP_pressure;BME280_temperature;BME280_humidity;BME280_pressure;Samples;Min_cycle;Max_cycle;Signal;HPM_P1;HPM_P2
2024/02/16 00:00:05;;;;;;;0.00;0.00;;;;;;;;;;4966183;28;20026;-91
2024/02/16 00:02:32;;;;;;;0.00;0.00;;;;;;;;;;4964806;28;20439;-91
2024/02/16 00:04:58;;;;;;;0.00;0.00;;;;;;;;;;4959244;28;20055;-91
2024/02/16 00:07:24;;;;;;;0.00;0.00;;;;;;;;;;4965252;28;20019;-91
2024/02/16 00:09:50;;;;;;;0.00;0.00;;;;;;;;;;4957391;28;20508;-90
2024/02/16 00:12:16;;;;;;;0.00;0.00;;;;;;;;;;4963882;28;20027;-91
2024/02/16 00:14:42;;;;;;;0.00;0.00;;;;;;;;;;4958936;28;20037;-90
2024/02/16 00:17:11;;;;;;;0.00;0.00;;;;;;;;;;4958415;28;20034;-90
2024/02/16 00:19:37;;;;;;;0.00;0.00;;;;;;;;;;4964259;28;20034;-90
2024/02/16 00:22:03;;;;;;;0.00;0.00;;;;;;;;;;4961616;28;20039;-90
2024/02/16 00:24:31;;;;;;;0.00;0.00;;;;;;;;;;4979458;28;20030;-94
2024/02/16 00:26:57;;;;;;;0.00;0.00;;;;;;;;;;4987295;28;20038;-93
2024/02/16 00:29:23;;;;;;;0.00;0.00;;;;;;;;;;4962354;28;20023;-91
2024/02/16 00:31:49;;;;;;;0.00;0.00;;;;;;;;;;4963519;28;20038;-91
2024/02/16 00:34:15;;;;;;;0.00;0.00;;;;;;;;;;4965194;28;20427;-91
2024/02/16 00:36:41;;;;;;;0.00;0.00;;;;;;;;;;4968552;28;20599;-90
2024/02/16 00:39:07;;;;;;;0.00;0.00;;;;;;;;;;4956607;28;20118;-92
2024/02/16 00:41:33;;;;;;;0.00;0.00;;;;;;;;;;4957356;28;20030;-92
2024/02/16 00:43:59;;;;;;;0.00;0.00;;;;;;;;;;4966647;28;20034;-92
2024/02/16 00:46:25;;;;;;;0.00;0.00;;;;;;;;;;4956782;28;20031;-92
2024/02/16 00:48:52;;;;;;;0.00;0.00;;;;;;;;;;4964677;28;20403;-91
2024/02/16 00:51:18;;;;;;;0.00;0.00;;;;;;;;;;4964218;28;20038;-92
2024/02/16 00:53:44;;;;;;;0.00;0.00;;;;;;;;;;4962187;28;20042;-92
2024/02/16 00:56:11;;;;;;;0.00;0.00;;;;;;;;;;4963211;28;20031;-91
2024/02/16 00:58:40;;;;;;;0.00;0.00;;;11.90;99.90;;;;;;4966841;28;20421;-92
2024/02/16 01:01:10;;;;;;;0.00;0.00;;;;;;;;;;4963376;28;20397;-91
2024/02/16 01:03:37;;;;;;;0.00;0.00;;;;;;;;;;4961037;28;20286;-92
2024/02/16 01:06:03;;;;;;;0.00;0.00;;;;;;;;;;4962063;28;20042;-91
2024/02/16 01:08:29;;;;;;;0.00;0.00;;;;;;;;;;4960522;28;20030;-92
2024/02/16 01:10:55;;;;;;;0.00;0.00;;;11.80;99.90;;;;;;4965260;28;20038;-91
2024/02/16 01:13:21;;;;;;;0.00;0.00;;;;;;;;;;4962040;28;20046;-93
2024/02/16 01:15:47;;;;;;;0.00;0.00;;;;;;;;;;4965129;28;20049;-91
2024/02/16 01:18:13;;;;;;;0.00;0.00;;;;;;;;;;4962510;28;20498;-91
2024/02/16 01:20:39;;;;;;;0.00;0.00;;;;;;;;;;4966739;28;20097;-91
2024/02/16 01:23:05;;;;;;;0.00;0.00;;;;;;;;;;4965405;28;20954;-92
2024/02/16 01:25:31;;;;;;;0.00;0.00;;;;;;;;;;4961108;28;20039;-92
2024/02/16 01:27:58;;;;;;;0.00;0.00;;;;;;;;;;4954882;28;20038;-92
2024/02/16 01:30:24;;;;;;;0.00;0.00;;;;;;;;;;4956867;28;20042;-91
2024/02/16 01:32:50;;;;;;;0.00;0.00;;;;;;;;;;4963572;28;20071;-91
2024/02/16 01:35:16;;;;;;;0.00;0.00;;;;;;;;;;4963779;28;20039;-91
2024/02/16 01:37:42;;;;;;;0.00;0.00;;;;;;;;;;4962435;28;20101;-93
2024/02/16 01:40:13;;;;;;;0.00;0.00;;;11.70;99.90;;;;;;4963278;28;20049;-90
2024/02/16 01:42:39;;;;;;;0.00;0.00;;;;;;;;;;4956993;28;20041;-92
2024/02/16 01:45:05;;;;;;;0.00;0.00;;;;;;;;;;4960580;28;20023;-93
2024/02/16 01:47:31;;;;;;;0.00;0.00;;;;;;;;;;4960297;28;20054;-91
2024/02/16 01:49:58;;;;;;;0.00;0.00;;;;;;;;;;4963252;28;20062;-92
2024/02/16 01:52:24;;;;;;;0.00;0.00;;;;;;;;;;4966772;28;20109;-93
2024/02/16 01:54:50;;;;;;;0.00;0.00;;;;;;;;;;4965106;28;20486;-90
2024/02/16 01:57:16;;;;;;;0.00;0.00;;;;;;;;;;4960959;28;20031;-91
2024/02/16 01:59:43;;;;;;;0.00;0.00;;;;;;;;;;4962858;28;20031;-91
2024/02/16 02:02:09;;;;;;;0.00;0.00;;;;;;;;;;4964758;28;20031;-92
2024/02/16 02:04:35;;;;;;;0.00;0.00;;;;;;;;;;4964281;28;20034;-93
2024/02/16 02:07:14;;;;;;;0.00;0.00;;;11.70;99.90;;;;;;4958274;28;20066;-91
2024/02/16 02:09:40;;;;;;;0.00;0.00;;;;;;;;;;4964767;28;20035;-91
2024/02/16 02:12:06;;;;;;;0.00;0.00;;;;;;;;;;4961595;28;20035;-93
2024/02/16 02:14:32;;;;;;;0.00;0.00;;;;;;;;;;4953483;28;20035;-92
2024/02/16 02:16:58;;;;;;;0.00;0.00;;;;;;;;;;4968799;28;20367;-92
2024/02/16 02:19:24;;;;;;;0.00;0.00;;;;;;;;;;4968020;28;20019;-91
2024/02/16 02:21:50;;;;;;;0.00;0.00;;;;;;;;;;4973267;28;20030;-91
2024/02/16 02:24:16;;;;;;;0.00;0.00;;;;;;;;;;4980296;28;20038;-92
2024/02/16 02:26:42;;;;;;;0.00;0.00;;;;;;;;;;4976903;28;20035;-92
2024/02/16 02:29:08;;;;;;;0.00;0.00;;;;;;;;;;4973420;28;20489;-93
2024/02/16 02:31:34;;;;;;;0.00;0.00;;;;;;;;;;4969756;28;20427;-92
2024/02/16 02:34:00;;;;;;;0.00;0.00;;;;;;;;;;4976363;28;20041;-91
2024/02/16 02:36:26;;;;;;;0.00;0.00;;;;;;;;;;4977881;28;20034;-91
2024/02/16 02:38:52;;;;;;;0.00;0.00;;;;;;;;;;4968357;28;20027;-92
2024/02/16 02:41:20;;;;;;;0.00;0.00;;;;;;;;;;4972297;28;20035;-91
2024/02/16 02:43:45;;;;;;;0.00;0.00;;;;;;;;;;4968248;28;20023;-91
2024/02/16 02:46:16;;;;;;;0.00;0.00;;;11.80;99.90;;;;;;4977961;28;20027;-92
2024/02/16 02:48:43;;;;;;;0.00;0.00;;;11.80;99.90;;;;;;4973371;28;20030;-92
2024/02/16 02:51:09;;;;;;;0.00;0.00;;;;;;;;;;4974416;28;20046;-91
2024/02/16 02:53:35;;;;;;;0.00;0.00;;;;;;;;;;4974898;28;20113;-91
2024/02/16 02:56:02;;;;;;;0.00;0.00;;;11.70;99.90;;;;;;4975745;28;20060;-93
2024/02/16 02:58:28;;;;;;;0.00;0.00;;;;;;;;;;4975424;28;20031;-93
2024/02/16 03:00:54;;;;;;;0.00;0.00;;;;;;;;;;4971449;28;20207;-92
2024/02/16 03:03:21;;;;;;;0.00;0.00;;;;;;;;;;4970945;28;20054;-91
2024/02/16 03:05:47;;;;;;;0.00;0.00;;;;;;;;;;4972908;28;20026;-91
2024/02/16 03:08:13;;;;;;;0.00;0.00;;;;;;;;;;4975926;28;20185;-91
2024/02/16 03:10:39;;;;;;;0.00;0.00;;;;;;;;;;4972774;28;20027;-92
2024/02/16 03:13:06;;;;;;;0.00;0.00;;;;;;;;;;4978848;28;20061;-90
2024/02/16 03:15:33;;;;;;;0.00;0.00;;;;;;;;;;4970644;28;20042;-93
2024/02/16 03:17:59;;;;;;;0.00;0.00;;;;;;;;;;4966752;28;20494;-91
2024/02/16 03:20:25;;;;;;;0.00;0.00;;;;;;;;;;4979808;28;20078;-92
2024/02/16 03:22:51;;;;;;;0.00;0.00;;;;;;;;;;4972824;28;20026;-92
2024/02/16 03:25:17;;;;;;;0.00;0.00;;;;;;;;;;4976532;28;20043;-92
2024/02/16 03:27:43;;;;;;;0.00;0.00;;;11.90;99.90;;;;;;4971154;28;20031;-92
2024/02/16 03:30:10;;;;;;;0.00;0.00;;;;;;;;;;4972859;28;20038;-91
2024/02/16 03:32:36;;;;;;;0.00;0.00;;;;;;;;;;4978089;28;20067;-90
2024/02/16 03:35:02;;;;;;;0.00;0.00;;;;;;;;;;4968408;28;20069;-91
2024/02/16 03:37:28;;;;;;;0.00;0.00;;;;;;;;;;4968626;28;20495;-90
2024/02/16 03:39:54;;;;;;;0.00;0.00;;;;;;;;;;4970817;28;20084;-91
2024/02/16 03:42:20;;;;;;;0.00;0.00;;;;;;;;;;4970876;28;20027;-92
2024/02/16 03:44:46;;;;;;;0.00;0.00;;;;;;;;;;4967662;28;20034;-90
2024/02/16 03:47:12;;;;;;;0.00;0.00;;;;;;;;;;4965305;28;20035;-91
2024/02/16 03:49:39;;;;;;;0.00;0.00;;;11.70;99.90;;;;;;4968724;28;20031;-92
2024/02/16 03:52:05;;;;;;;0.00;0.00;;;;;;;;;;4966200;28;20039;-91
2024/02/16 03:54:31;;;;;;;0.00;0.00;;;;;;;;;;4968919;28;20386;-91
2024/02/16 03:56:58;;;;;;;0.00;0.00;;;;;;;;;;4970648;28;20066;-91
2024/02/16 03:59:24;;;;;;;0.00;0.00;;;;;;;;;;4966538;28;20031;-91
2024/02/16 04:01:51;;;;;;;0.00;0.00;;;;;;;;;;4967447;28;20049;-91
2024/02/16 04:04:17;;;;;;;0.00;0.00;;;;;;;;;;4968051;28;20421;-91
2024/02/16 04:06:43;;;;;;;0.00;0.00;;;;;;;;;;4959042;28;20038;-91
2024/02/16 04:09:10;;;;;;;0.00;0.00;;;;;;;;;;4979226;28;20043;-95
2024/02/16 04:11:36;;;;;;;0.00;0.00;;;;;;;;;;4993001;28;20082;-95
2024/02/16 04:14:01;;;;;;;0.00;0.00;;;;;;;;;;4985090;28;20034;-92
2024/02/16 04:16:28;;;;;;;0.00;0.00;;;;;;;;;;4971703;28;20031;-91
2024/02/16 04:18:55;;;;;;;0.00;0.00;;;;;;;;;;4975773;28;20030;-93
2024/02/16 04:21:21;;;;;;;0.00;0.00;;;;;;;;;;4972605;28;20037;-92
2024/02/16 04:23:47;;;;;;;0.00;0.00;;;;;;;;;;4971186;28;20117;-91
2024/02/16 04:26:13;;;;;;;0.00;0.00;;;;;;;;;;4973403;28;20123;-91
2024/02/16 04:28:39;;;;;;;0.00;0.00;;;11.60;99.90;;;;;;4971802;28;20406;-92
2024/02/16 04:31:06;;;;;;;0.00;0.00;;;;;;;;;;4952728;28;20043;-93
2024/02/16 04:33:32;;;;;;;0.00;0.00;;;;;;;;;;4964683;28;20033;-91
2024/02/16 04:35:58;;;;;;;0.00;0.00;;;;;;;;;;4973295;28;20042;-92
2024/02/16 04:38:24;;;;;;;0.00;0.00;;;;;;;;;;4967294;28;20402;-93
2024/02/16 04:40:50;;;;;;;0.00;0.00;;;;;;;;;;4971873;28;20031;-91
2024/02/16 04:43:16;;;;;;;0.00;0.00;;;;;;;;;;4970366;28;20256;-91
2024/02/16 04:45:42;;;;;;;0.10;0.10;;;;;;;;;;4973822;28;20034;-92
2024/02/16 04:48:08;;;;;;;0.00;0.00;;;;;;;;;;4971281;28;20061;-91
2024/02/16 04:50:35;;;;;;;0.00;0.00;;;;;;;;;;4975047;28;20030;-92
2024/02/16 04:53:04;;;;;;;0.00;0.00;;;;;;;;;;4968900;28;20090;-91
2024/02/16 04:55:30;;;;;;;0.10;0.10;;;;;;;;;;4971790;28;20033;-91
2024/02/16 04:57:56;;;;;;;0.00;0.00;;;;;;;;;;4970156;28;20031;-91
2024/02/16 05:00:22;;;;;;;0.00;0.00;;;;;;;;;;4971955;28;20031;-91
2024/02/16 05:02:48;;;;;;;0.00;0.00;;;;;;;;;;4974806;28;20031;-92
2024/02/16 05:05:15;;;;;;;0.00;0.00;;;;;;;;;;4968573;28;20029;-92
2024/02/16 05:07:43;;;;;;;0.00;0.00;;;;;;;;;;4974051;28;20023;-92
2024/02/16 05:10:09;;;;;;;0.05;0.05;;;;;;;;;;4971356;28;20121;-91
2024/02/16 05:12:35;;;;;;;0.00;0.00;;;;;;;;;;4976432;28;20026;-91
2024/02/16 05:15:01;;;;;;;0.00;0.00;;;;;;;;;;4965465;28;20030;-90
2024/02/16 05:17:27;;;;;;;0.00;0.00;;;;;;;;;;4966798;28;20703;-92
2024/02/16 05:19:53;;;;;;;0.00;0.00;;;;;;;;;;4969947;28;20088;-92
2024/02/16 05:22:21;;;;;;;0.00;0.00;;;;;;;;;;4965733;28;20027;-92
2024/02/16 05:24:47;;;;;;;0.00;0.00;;;;;;;;;;4967368;28;20058;-90
2024/02/16 05:27:13;;;;;;;0.00;0.00;;;;;;;;;;4970761;28;20062;-90
2024/02/16 05:29:40;;;;;;;0.00;0.00;;;;;;;;;;4976042;28;20074;-91
2024/02/16 05:32:06;;;;;;;0.00;0.00;;;;;;;;;;4972774;28;20042;-90
2024/02/16 05:34:37;;;;;;;0.00;0.00;;;;;;;;;;4969928;28;20151;-92
2024/02/16 05:37:06;;;;;;;0.00;0.00;;;;;;;;;;4965573;28;20038;-91
2024/02/16 05:39:53;;;;;;;0.00;0.00;;;11.90;99.90;;;;;;4968245;28;20525;-91
2024/02/16 05:42:20;;;;;;;0.00;0.00;;;;;;;;;;4974256;28;20065;-91
2024/02/16 05:44:46;;;;;;;0.00;0.00;;;;;;;;;;4973819;28;20018;-90
2024/02/16 05:47:12;;;;;;;0.00;0.00;;;;;;;;;;4974816;28;20166;-92
2024/02/16 05:49:38;;;;;;;0.00;0.00;;;;;;;;;;4969917;28;20046;-92
2024/02/16 05:52:17;;;;;;;0.00;0.00;;;12.00;99.90;;;;;;4973032;28;20031;-91
2024/02/16 05:54:50;;;;;;;0.00;0.00;;;11.90;99.90;;;;;;4966297;28;20027;-92
2024/02/16 05:57:16;;;;;;;0.00;0.00;;;12.00;99.90;;;;;;4965773;28;20031;-91
2024/02/16 05:59:42;;;;;;;0.00;0.00;;;;;;;;;;4973091;28;20015;-91
2024/02/16 06:02:10;;;;;;;0.00;0.00;;;;;;;;;;4971496;28;20401;-91
2024/02/16 06:04:37;;;;;;;0.00;0.00;;;;;;;;;;4976431;28;20023;-91
2024/02/16 06:07:03;;;;;;;0.00;0.00;;;;;;;;;;4970701;28;20446;-91
2024/02/16 06:09:33;;;;;;;0.00;0.00;;;;;;;;;;4968402;28;20031;-90
2024/02/16 06:12:03;;;;;;;0.00;0.00;;;11.90;99.90;;;;;;4972896;28;20027;-91
2024/02/16 06:14:29;;;;;;;0.00;0.00;;;;;;;;;;4992022;28;20031;-93
2024/02/16 06:16:55;;;;;;;0.00;0.00;;;;;;;;;;4972989;28;20038;-90
2024/02/16 06:19:21;;;;;;;0.00;0.00;;;;;;;;;;4972581;28;20370;-91
2024/02/16 06:21:47;;;;;;;0.00;0.00;;;;;;;;;;4972425;28;20050;-90
2024/02/16 06:24:13;;;;;;;0.00;0.00;;;;;;;;;;4971377;28;20027;-91
2024/02/16 06:26:39;;;;;;;0.00;0.00;;;;;;;;;;4973781;28;20085;-92
2024/02/16 06:29:05;;;;;;;0.00;0.00;;;;;;;;;;4970591;28;20038;-91
2024/02/16 06:31:31;;;;;;;0.00;0.00;;;;;;;;;;4969994;28;20116;-94
2024/02/16 06:33:56;;;;;;;0.00;0.00;;;;;;;;;;4969764;28;20045;-92
2024/02/16 06:36:23;;;;;;;0.00;0.00;;;;;;;;;;4974553;28;20506;-90
2024/02/16 06:38:49;;;;;;;0.00;0.00;;;;;;;;;;4973321;28;20051;-92
2024/02/16 06:41:15;;;;;;;0.00;0.00;;;;;;;;;;4971390;28;20065;-92
2024/02/16 06:43:42;;;;;;;0.00;0.00;;;;;;;;;;4976729;28;20126;-91
2024/02/16 06:46:08;;;;;;;0.00;0.00;;;;;;;;;;4974506;28;20034;-91
2024/02/16 06:48:34;;;;;;;0.00;0.00;;;;;;;;;;4974986;28;20169;-90
2024/02/16 06:51:00;;;;;;;0.00;0.00;;;;;;;;;;4971192;28;20125;-91
2024/02/16 06:53:26;;;;;;;0.00;0.00;;;;;;;;;;4967335;28;20042;-92
2024/02/16 06:55:51;;;;;;;0.00;0.00;;;;;;;;;;4975668;28;20027;-92
2024/02/16 06:58:17;;;;;;;0.00;0.00;;;;;;;;;;4975018;28;20030;-92
2024/02/16 07:00:43;;;;;;;0.00;0.00;;;;;;;;;;4974757;28;20058;-91
2024/02/16 07:03:10;;;;;;;0.00;0.00;;;;;;;;;;4969143;28;20027;-91
2024/02/16 07:05:36;;;;;;;0.00;0.00;;;;;;;;;;4973617;28;20057;-92
2024/02/16 07:08:02;;;;;;;0.00;0.00;;;;;;;;;;4971093;28;20482;-91
2024/02/16 07:10:28;;;;;;;0.00;0.00;;;;;;;;;;4971692;28;20031;-91
2024/02/16 07:12:54;;;;;;;0.00;0.00;;;;;;;;;;4977571;28;20029;-91
2024/02/16 07:15:20;;;;;;;0.00;0.00;;;12.30;99.90;;;;;;4967066;28;20034;-91
2024/02/16 07:17:46;;;;;;;0.00;0.00;;;;;;;;;;4970730;28;20023;-91
2024/02/16 07:20:15;;;;;;;0.00;0.00;;;;;;;;;;4970389;28;20027;-90
2024/02/16 07:22:42;;;;;;;0.00;0.00;;;;;;;;;;4971912;28;20027;-91
2024/02/16 07:25:08;;;;;;;0.00;0.00;;;;;;;;;;4971028;28;20058;-90
2024/02/16 07:27:34;;;;;;;0.00;0.00;;;;;;;;;;4972399;28;20129;-90
2024/02/16 07:30:00;;;;;;;0.00;0.00;;;;;;;;;;4966443;28;20545;-94
2024/02/16 07:32:26;;;;;;;0.00;0.00;;;;;;;;;;4961233;28;20126;-91
2024/02/16 07:34:52;;;;;;;0.00;0.00;;;;;;;;;;4972231;28;20165;-91
2024/02/16 07:37:18;;;;;;;0.00;0.00;;;;;;;;;;4973466;28;20126;-91
2024/02/16 07:39:44;;;;;;;0.00;0.00;;;;;;;;;;4972645;28;20061;-90
2024/02/16 07:42:09;;;;;;;0.00;0.00;;;12.50;99.90;;;;;;4974217;28;20041;-91
2024/02/16 07:44:36;;;;;;;0.00;0.00;;;;;;;;;;4974345;28;20029;-91
2024/02/16 07:47:02;;;;;;;0.00;0.00;;;;;;;;;;4970608;28;20084;-91
2024/02/16 07:49:28;;;;;;;0.00;0.00;;;;;;;;;;4971217;28;20046;-91
2024/02/16 07:51:54;;;;;;;0.00;0.00;;;;;;;;;;4977333;28;20035;-90
2024/02/16 07:54:20;;;;;;;0.00;0.00;;;;;;;;;;4975530;28;20062;-90
2024/02/16 07:56:46;;;;;;;0.00;0.00;;;;;;;;;;4976039;28;20181;-90
2024/02/16 07:59:12;;;;;;;0.00;0.00;;;;;;;;;;4984584;28;20098;-95
2024/02/16 08:01:38;;;;;;;0.00;0.00;;;;;;;;;;4995027;28;20077;-95
2024/02/16 08:04:04;;;;;;;0.00;0.00;;;;;;;;;;4979169;28;20069;-91
2024/02/16 08:06:30;;;;;;;0.00;0.00;;;;;;;;;;4974377;28;20121;-91
2024/02/16 08:08:56;;;;;;;0.00;0.00;;;;;;;;;;4977336;28;20054;-90
2024/02/16 08:11:23;;;;;;;0.00;0.00;;;;;;;;;;4965803;28;20058;-92
2024/02/16 08:13:49;;;;;;;0.00;0.00;;;;;;;;;;4980891;28;20063;-91
2024/02/16 08:16:15;;;;;;;0.00;0.00;;;;;;;;;;4973770;28;20108;-91
2024/02/16 08:18:43;;;;;;;0.00;0.00;;;13.20;99.90;;;;;;4976203;28;20595;-92
2024/02/16 08:21:10;;;;;;;0.00;0.00;;;;;;;;;;4971191;28;20031;-92
2024/02/16 08:23:37;;;;;;;0.00;0.00;;;;;;;;;;4972073;28;20023;-90
2024/02/16 08:26:03;;;;;;;0.00;0.00;;;;;;;;;;4966329;28;20129;-91
2024/02/16 08:28:29;;;;;;;0.00;0.00;;;;;;;;;;4973171;28;20065;-91
2024/02/16 08:30:55;;;;;;;0.00;0.00;;;;;;;;;;4972162;28;20034;-92
2024/02/16 08:33:21;;;;;;;0.00;0.00;;;;;;;;;;4973146;28;20038;-92
2024/02/16 08:35:47;;;;;;;0.00;0.00;;;;;;;;;;4977827;28;20030;-91
2024/02/16 08:38:13;;;;;;;0.00;0.00;;;;;;;;;;4974031;28;20027;-92
2024/02/16 08:40:39;;;;;;;0.00;0.00;;;;;;;;;;4968495;28;20035;-92
2024/02/16 08:43:07;;;;;;;0.00;0.00;;;13.80;99.90;;;;;;4978255;28;20030;-91
2024/02/16 08:45:32;;;;;;;0.00;0.00;;;;;;;;;;4974399;28;20058;-91
2024/02/16 08:48:00;;;;;;;0.00;0.00;;;;;;;;;;4973810;28;20510;-93
2024/02/16 08:50:25;;;;;;;0.00;0.00;;;;;;;;;;4974706;28;20046;-90
2024/02/16 08:52:52;;;;;;;0.00;0.00;;;;;;;;;;4978408;28;20026;-91
2024/02/16 08:55:18;;;;;;;0.00;0.00;;;;;;;;;;4971590;28;20675;-92
2024/02/16 08:57:45;;;;;;;0.00;0.00;;;;;;;;;;4972638;28;20029;-91
2024/02/16 09:00:11;;;;;;;0.00;0.00;;;;;;;;;;4976055;28;20501;-91
2024/02/16 09:02:37;;;;;;;0.00;0.00;;;;;;;;;;4978034;28;20112;-91
2024/02/16 09:05:04;;;;;;;0.00;0.00;;;;;;;;;;4979392;28;20498;-91
2024/02/16 09:07:30;;;;;;;0.00;0.00;;;;;;;;;;4976356;28;20121;-92
2024/02/16 09:09:56;;;;;;;0.00;0.00;;;;;;;;;;4973373;28;20030;-91
2024/02/16 09:12:22;;;;;;;0.00;0.00;;;;;;;;;;4978180;28;20034;-92
2024/02/16 09:14:48;;;;;;;0.00;0.00;;;;;;;;;;4977748;28;20441;-91
2024/02/16 09:17:14;;;;;;;0.00;0.00;;;;;;;;;;4975212;28;20039;-92
2024/02/16 09:19:40;;;;;;;0.00;0.00;;;;;;;;;;4973491;28;20078;-93
2024/02/16 09:22:06;;;;;;;0.00;0.00;;;;;;;;;;4975508;28;20033;-92
2024/02/16 09:24:33;;;;;;;0.00;0.00;;;;;;;;;;4972291;28;20038;-91
2024/02/16 09:27:03;;;;;;;0.00;0.00;;;;;;;;;;4977425;28;20122;-90
2024/02/16 09:29:29;;;;;;;0.00;0.00;;;;;;;;;;4973819;28;20090;-91
2024/02/16 09:31:55;;;;;;;0.00;0.00;;;;;;;;;;4973663;28;20038;-91
2024/02/16 09:34:21;;;;;;;0.00;0.00;;;;;;;;;;4967788;28;20038;-92
2024/02/16 09:36:47;;;;;;;0.00;0.00;;;;;;;;;;4970395;28;20498;-91
2024/02/16 09:39:13;;;;;;;0.00;0.00;;;;;;;;;;4974202;28;20037;-92
2024/02/16 09:41:40;;;;;;;0.00;0.00;;;;;;;;;;4969966;28;20042;-91
2024/02/16 09:44:06;;;;;;;0.00;0.00;;;;;;;;;;4973176;28;20027;-92
2024/02/16 09:46:33;;;;;;;0.00;0.00;;;;;;;;;;4964464;28;20405;-94
2024/02/16 09:49:02;;;;;;;0.00;0.00;;;15.10;99.90;;;;;;4975140;28;20404;-91
2024/02/16 09:51:29;;;;;;;0.00;0.00;;;;;;;;;;4972439;28;20494;-91
2024/02/16 09:53:55;;;;;;;0.00;0.00;;;;;;;;;;4972201;28;20064;-91
2024/02/16 09:56:21;;;;;;;0.00;0.00;;;;;;;;;;4973741;28;20034;-91
2024/02/16 09:58:47;;;;;;;0.00;0.00;;;;;;;;;;4975008;28;20046;-91
2024/02/16 10:01:20;;;;;;;0.00;0.00;;;;;;;;;;4972713;28;20410;-91
2024/02/16 10:03:46;;;;;;;0.00;0.00;;;;;;;;;;4973463;28;20050;-91
2024/02/16 10:06:13;;;;;;;0.00;0.00;;;;;;;;;;4977117;28;20041;-92
2024/02/16 10:08:52;;;;;;;0.00;0.00;;;15.40;99.90;;;;;;4965225;28;20117;-91
2024/02/16 10:11:19;;;;;;;0.00;0.00;;;;;;;;;;4969822;28;20129;-91
2024/02/16 10:13:58;;;;;;;0.00;0.00;;;;;;;;;;4972977;28;20061;-92
2024/02/16 10:16:24;;;;;;;0.00;0.00;;;;;;;;;;4975626;28;20030;-91
2024/02/16 10:18:50;;;;;;;0.00;0.00;;;;;;;;;;4972569;28;20033;-91
2024/02/16 10:21:27;;;;;;;0.00;0.00;;;15.60;99.90;;;;;;4973006;28;20026;-92
2024/02/16 10:24:01;;;;;;;0.00;0.00;;;15.70;99.90;;;;;;4974144;28;20026;-92
2024/02/16 10:26:28;;;;;;;0.00;0.00;;;;;;;;;;4975226;28;20053;-92
2024/02/16 10:28:56;;;;;;;0.00;0.00;;;15.60;99.90;;;;;;4975028;28;20035;-91
2024/02/16 10:31:30;;;;;;;0.00;0.00;;;15.70;99.90;;;;;;4978857;28;20022;-92
2024/02/16 10:34:09;;;;;;;0.00;0.00;;;15.70;99.90;;;;;;4967298;28;20482;-92
2024/02/16 10:36:36;;;;;;;0.00;0.00;;;15.80;99.90;;;;;;4973497;28;20042;-91
2024/02/16 10:39:04;;;;;;;0.00;0.00;;;;;;;;;;4974201;28;20278;-91
2024/02/16 10:41:34;;;;;;;0.00;0.00;;;15.90;99.90;;;;;;4972061;28;20026;-91
2024/02/16 10:44:02;;;;;;;0.00;0.00;;;16.00;99.90;;;;;;4976505;28;20501;-91
2024/02/16 10:46:28;;;;;;;0.00;0.00;;;;;;;;;;4980188;28;20035;-92
2024/02/16 10:48:54;;;;;;;0.00;0.00;;;;;;;;;;4970945;28;20085;-91
2024/02/16 10:51:42;;;;;;;0.00;0.00;;;16.30;99.90;;;;;;4970826;28;20070;-92
2024/02/16 10:54:09;;;;;;;0.00;0.00;;;16.50;99.90;;;;;;4970412;28;20039;-91
2024/02/16 10:56:36;;;;;;;0.00;0.00;;;16.60;99.90;;;;;;4972322;28;20070;-91
2024/02/16 10:59:03;;;;;;;0.00;0.00;;;;;;;;;;4967023;28;20034;-91
2024/02/16 11:01:32;;;;;;;0.00;0.00;;;16.70;99.90;;;;;;4971141;28;20487;-91
2024/02/16 11:04:02;;;;;;;0.00;0.00;;;;;;;;;;4976825;28;20113;-91
2024/02/16 11:06:28;;;;;;;0.00;0.00;;;;;;;;;;4969079;28;20042;-92
2024/02/16 11:08:54;;;;;;;0.00;0.00;;;;;;;;;;4973318;28;20035;-91
2024/02/16 11:11:24;;;;;;;0.00;0.00;;;;;;;;;;4975503;28;20042;-91
2024/02/16 11:13:50;;;;;;;0.00;0.00;;;;;;;;;;4971188;28;20532;-91
2024/02/16 11:16:18;;;;;;;0.00;0.00;;;17.00;99.90;;;;;;4967286;28;20039;-92
2024/02/16 11:18:48;;;;;;;0.00;0.00;;;16.90;99.90;;;;;;4966706;28;20051;-91
2024/02/16 11:21:17;;;;;;;;;;;16.80;99.90;;;;;;4962975;28;20035;-91
2024/02/16 11:23:43;;;;;;;0.00;0.00;;;;;;;;;;4965384;28;20004;-91
2024/02/16 11:26:17;;;;;;;0.00;0.00;;;16.80;99.90;;;;;;4967730;28;20482;-91
2024/02/16 11:28:43;;;;;;;0.00;0.00;;;;;;;;;;4969937;28;20125;-91
2024/02/16 11:31:09;;;;;;;0.00;0.00;;;;;;;;;;4972686;28;20462;-91
2024/02/16 11:33:35;;;;;;;0.00;0.00;;;;;;;;;;4970574;28;20090;-91
2024/02/16 11:36:05;;;;;;;0.00;0.00;;;16.80;99.90;;;;;;4970338;28;20035;-91
2024/02/16 11:38:32;;;;;;;0.00;0.00;;;16.80;99.90;;;;;;4973053;28;20023;-91
2024/02/16 11:41:03;;;;;;;0.00;0.00;;;16.70;99.90;;;;;;4971045;28;20964;-90
2024/02/16 11:43:35;;;;;;;0.00;0.00;;;16.60;99.90;;;;;;4965517;28;20042;-90
2024/02/16 11:46:12;;;;;;;0.00;0.00;;;16.60;99.90;;;;;;4971287;28;20031;-91
2024/02/16 11:48:38;;;;;;;0.00;0.00;;;;;;;;;;4975087;28;20506;-90
2024/02/16 11:51:14;;;;;;;0.00;0.00;;;;;;;;;;4972401;28;20074;-91
2024/02/16 11:53:45;;;;;;;0.00;0.00;;;;;;;;;;4969581;28;20031;-91
2024/02/16 11:56:21;;;;;;;0.00;0.00;;;;;;;;;;4987588;28;20054;-92
2024/02/16 11:58:47;;;;;;;0.00;0.00;;;;;;;;;;4989621;28;20101;-91
2024/02/16 12:01:13;;;;;;;0.00;0.00;;;;;;;;;;4973847;28;20023;-92
2024/02/16 12:03:41;;;;;;;0.00;0.00;;;16.60;99.90;;;;;;4973952;28;20034;-91
2024/02/16 12:06:07;;;;;;;0.00;0.00;;;;;;;;;;4975050;28;20117;-91
2024/02/16 12:08:34;;;;;;;0.00;0.00;;;16.50;99.90;;;;;;4969978;28;20035;-92
2024/02/16 12:11:00;;;;;;;0.00;0.00;;;;;;;;;;4975757;28;20118;-90
2024/02/16 12:13:26;;;;;;;0.00;0.00;;;;;;;;;;4966615;28;20074;-92
2024/02/16 12:15:52;;;;;;;0.00;0.00;;;;;;;;;;4973840;28;20038;-91
2024/02/16 12:18:23;;;;;;;0.00;0.00;;;;;;;;;;4979475;28;20045;-91
2024/02/16 12:21:11;;;;;;;0.00;0.00;;;;;;;;;;4972037;28;20621;-91
2024/02/16 12:23:39;;;;;;;0.00;0.00;;;;;;;;;;4968422;28;20027;-92
2024/02/16 12:26:05;;;;;;;0.00;0.00;;;;;;;;;;4973486;28;20478;-92
2024/02/16 12:28:35;;;;;;;0.00;0.00;;;;;;;;;;4976889;28;20109;-92
2024/02/16 12:31:04;;;;;;;0.00;0.00;;;;;;;;;;4972155;28;20105;-91
2024/02/16 12:33:30;;;;;;;0.00;0.00;;;;;;;;;;4974677;28;20058;-91
2024/02/16 12:35:56;;;;;;;0.00;0.00;;;;;;;;;;4973800;28;20089;-91
2024/02/16 12:38:22;;;;;;;0.00;0.00;;;;;;;;;;4972240;28;20031;-90
2024/02/16 12:40:48;;;;;;;0.00;0.00;;;;;;;;;;4973761;28;20031;-91
2024/02/16 12:43:15;;;;;;;0.00;0.00;;;;;;;;;;4971548;28;20031;-90
2024/02/16 12:45:41;;;;;;;0.00;0.00;;;16.40;99.90;;;;;;4975065;28;20026;-92
2024/02/16 12:48:09;;;;;;;0.00;0.00;;;;;;;;;;4975025;28;20513;-91
2024/02/16 12:50:35;;;;;;;0.00;0.00;;;;;;;;;;4964533;28;20035;-91
2024/02/16 12:53:01;;;;;;;0.00;0.00;;;;;;;;;;4966291;28;20336;-91
2024/02/16 12:55:27;;;;;;;0.00;0.00;;;;;;;;;;4963393;28;20026;-92
2024/02/16 12:57:53;;;;;;;0.00;0.00;;;;;;;;;;4956407;28;20038;-91
2024/02/16 13:00:20;;;;;;;0.00;0.00;;;;;;;;;;4956252;28;20035;-92
2024/02/16 13:02:46;;;;;;;0.00;0.00;;;;;;;;;;4957041;28;20051;-92
2024/02/16 13:05:11;;;;;;;0.00;0.00;;;;;;;;;;4969279;28;20095;-92
2024/02/16 13:07:39;;;;;;;0.00;0.00;;;;;;;;;;4968370;28;20026;-93
2024/02/16 13:10:06;;;;;;;0.00;0.00;;;16.60;99.90;;;;;;4964232;28;20138;-92
2024/02/16 13:12:32;;;;;;;0.00;0.00;;;;;;;;;;4959996;28;20030;-92
2024/02/16 13:14:58;;;;;;;0.00;0.00;;;;;;;;;;4960670;28;20049;-91
2024/02/16 13:17:26;;;;;;;0.00;0.00;;;;;;;;;;4960120;28;20477;-92
2024/02/16 13:19:52;;;;;;;0.00;0.00;;;;;;;;;;4966770;28;20813;-91
2024/02/16 13:22:18;;;;;;;0.00;0.00;;;;;;;;;;4972517;28;20023;-91
2024/02/16 13:24:44;;;;;;;0.00;0.00;;;;;;;;;;4978335;28;20034;-92
2024/02/16 13:27:10;;;;;;;0.00;0.00;;;;;;;;;;4971164;28;20129;-91
2024/02/16 13:29:36;;;;;;;0.00;0.00;;;;;;;;;;4977988;28;20090;-93
2024/02/16 13:32:03;;;;;;;0.00;0.00;;;;;;;;;;4971772;28;20119;-91
2024/02/16 13:34:32;;;;;;;0.00;0.00;;;;;;;;;;4967454;28;20166;-92
2024/02/16 13:37:01;;;;;;;0.00;0.00;;;;;;;;;;4987048;28;20050;-93
2024/02/16 13:39:27;;;;;;;0.00;0.00;;;;;;;;;;4977206;28;20478;-92
2024/02/16 13:41:53;;;;;;;0.00;0.00;;;;;;;;;;4975082;28;20039;-91
2024/02/16 13:44:20;;;;;;;0.00;0.00;;;15.80;99.90;;;;;;4974110;28;20045;-90
2024/02/16 15:18:55;;;;;;;0.00;0.00;;;;;;;;;;4989885;28;20042;-90
2024/02/16 15:21:24;;;;;;;0.00;0.00;;;;;;;;;;4990297;28;20600;-91
2024/02/16 15:23:50;;;;;;;0.00;0.00;;;;;;;;;;4996176;28;20037;-92
2024/02/16 15:26:22;;;;;;;0.05;0.05;;;;;;;;;;4992821;28;20034;-92
2024/02/16 15:28:48;;;;;;;0.00;0.00;;;;;;;;;;4993352;28;20042;-93
2024/02/16 15:31:33;;;;;;;0.00;0.00;;;;;;;;;;4998502;28;20036;-91
2024/02/16 15:34:05;;;;;;;0.00;0.00;;;;;;;;;;4995358;28;20054;-91
2024/02/16 15:36:31;;;;;;;0.00;0.00;;;;;;;;;;4994667;28;20147;-90
2024/02/16 15:42:26;;;;;;;0.00;0.00;;;;;;;;;;4982951;28;20037;-93
2024/02/16 15:44:52;;;;;;;0.00;0.00;;;;;;;;;;5001763;28;20057;-92
2024/02/16 15:47:39;;;;;;;0.00;0.00;;;13.90;99.90;;;;;;5101859;23;1229659;-93
2024/02/16 15:50:06;;;;;;;0.00;0.00;;;;;;;;;;5011378;28;20032;-90
2024/02/16 15:52:32;;;;;;;0.00;0.00;;;;;;;;;;5003413;28;20057;-90
2024/02/16 15:54:59;;;;;;;0.00;0.00;;;;;;;;;;5004159;28;21464;-91
2024/02/16 15:57:24;;;;;;;0.00;0.00;;;;;;;;;;5000394;28;20334;-92
2024/02/16 15:59:50;;;;;;;0.00;0.00;;;;;;;;;;5007235;28;20026;-90